createdAt,value
2023-11-09T00:01:32.030Z,5.81
2023-11-09T00:06:50.797Z,5.87
2023-11-09T00:17:08.340Z,5.87
2023-11-09T00:22:28.178Z,5.75
2023-11-09T00:32:45.642Z,5.69
2023-11-09T00:43:02.803Z,5.5
2023-11-09T00:58:24.404Z,5.31
2023-11-09T01:08:41.899Z,5.5
2023-11-09T01:18:59.848Z,5.69
2023-11-09T01:24:18.734Z,5.75
2023-11-09T01:29:37.573Z,5.81
2023-11-09T01:34:56.513Z,5.81
2023-11-09T01:40:15.849Z,6.19
2023-11-09T01:45:34.708Z,6.25
2023-11-09T01:50:55.501Z,6.25
2023-11-09T01:56:14.201Z,6.31
2023-11-09T02:01:32.939Z,6.19
2023-11-09T02:06:51.696Z,6.31
2023-11-09T02:17:11.934Z,6.25
2023-11-09T02:27:29.827Z,6.19
2023-11-09T02:32:48.662Z,6.12
2023-11-09T02:38:07.529Z,6.06
2023-11-09T02:43:26.345Z,6.25
2023-11-09T02:48:45.061Z,6
2023-11-09T02:54:03.829Z,5.87
2023-11-09T02:59:24.548Z,5.94
2023-11-09T03:04:43.813Z,5.81
2023-11-09T03:10:02.748Z,5.81
2023-11-09T03:15:21.613Z,5.62
2023-11-09T03:20:40.207Z,5.5
2023-11-09T03:25:58.819Z,5.31
2023-11-09T03:31:17.457Z,5.44
2023-11-09T03:36:36.211Z,5.37
2023-11-09T03:41:54.871Z,5.44
2023-11-09T03:47:13.474Z,5.56
2023-11-09T03:52:32.104Z,5.56
2023-11-09T03:57:50.895Z,5.56
2023-11-09T04:03:09.634Z,5.44
2023-11-09T04:08:28.334Z,5.44
2023-11-09T04:13:48.033Z,5.5
2023-11-09T04:19:06.906Z,5.5
2023-11-09T04:24:25.801Z,5.56
2023-11-09T04:29:44.473Z,5.5
2023-11-09T04:35:03.133Z,5.44
2023-11-09T04:40:21.955Z,5.37
2023-11-09T04:45:42.621Z,5.44
2023-11-09T04:51:01.364Z,5.44
2023-11-09T04:56:20.036Z,5.37
2023-11-09T05:01:38.686Z,5.31
2023-11-09T05:06:57.446Z,5.44
2023-11-09T05:12:16.147Z,5.37
2023-11-09T05:17:34.879Z,5.44
2023-11-09T05:22:53.702Z,5.56
2023-11-09T05:28:12.287Z,5.44
2023-11-09T05:33:31.026Z,5.5
2023-11-09T05:43:48.396Z,5.25
2023-11-09T05:54:05.940Z,5.25
2023-11-09T06:04:23.474Z,5.31
2023-11-09T06:09:42.267Z,5.69
2023-11-09T06:15:01.190Z,5.94
2023-11-09T06:20:20.151Z,6.44
2023-11-09T06:25:39.929Z,6.87
2023-11-09T06:30:57.812Z,7.19
2023-11-09T06:36:16.737Z,7.31
2023-11-09T06:41:36.357Z,7.37
2023-11-09T06:46:55.108Z,7.5
2023-11-09T06:57:20.657Z,7.5
2023-11-09T07:02:39.297Z,7.56
2023-11-09T07:07:57.933Z,7.5
2023-11-09T07:18:15.079Z,7.37
2023-11-09T07:23:33.698Z,7
2023-11-09T07:28:52.252Z,7
2023-11-09T07:34:10.985Z,7.06
2023-11-09T07:39:29.578Z,7.19
2023-11-09T07:44:48.283Z,7.25
2023-11-09T07:50:06.991Z,7.31
2023-11-09T07:55:25.645Z,7.37
2023-11-09T08:00:44.391Z,7.5
2023-11-09T08:06:02.761Z,7.56
2023-11-09T08:11:21.605Z,7.62
2023-11-09T08:16:40.410Z,7.81
2023-11-09T08:21:59.201Z,7.94
2023-11-09T08:27:17.463Z,7.94
2023-11-09T08:32:36.296Z,7.94
2023-11-09T08:37:54.871Z,7.94
2023-11-09T08:43:13.694Z,7.94
2023-11-09T08:48:32.275Z,7.87
2023-11-09T08:53:52.935Z,7.69
2023-11-09T08:59:09.797Z,7.62
2023-11-09T09:04:29.444Z,7.69
2023-11-09T09:09:48.015Z,7.75
2023-11-09T09:15:06.748Z,7.75
2023-11-09T09:20:25.599Z,7.87
2023-11-09T09:25:44.137Z,7.94
2023-11-09T09:31:02.960Z,8.06
2023-11-09T09:36:21.347Z,8.19
2023-11-09T09:41:40.259Z,8.44
2023-11-09T09:46:59.075Z,8.75
2023-11-09T09:52:18.815Z,8.88
2023-11-09T09:57:36.511Z,9
2023-11-09T10:02:55.353Z,9.19
2023-11-09T10:08:14.032Z,9.19
2023-11-09T10:13:32.722Z,9
2023-11-09T10:18:51.537Z,9
2023-11-09T10:24:10.264Z,9.25
2023-11-09T10:29:29.178Z,9.19
2023-11-09T10:34:47.725Z,9.13
2023-11-09T10:40:06.497Z,9.25
2023-11-09T10:45:25.326Z,9.31
2023-11-09T10:50:44.578Z,9.75
2023-11-09T10:56:04.918Z,9.88
2023-11-09T11:01:22.339Z,9.63
2023-11-09T11:06:40.832Z,9.5
2023-11-09T11:11:59.603Z,9.38
2023-11-09T11:22:17.335Z,10.56
2023-11-09T11:27:36.338Z,10.38
2023-11-09T11:32:54.752Z,9.94
2023-11-09T11:38:13.173Z,9.81
2023-11-09T11:43:31.720Z,9.75
2023-11-09T11:48:50.467Z,9.75
2023-11-09T11:54:09.204Z,9.69
2023-11-09T11:59:27.808Z,9.69
2023-11-09T12:09:51.069Z,9.69
2023-11-09T12:15:09.633Z,9.63
2023-11-09T12:20:28.343Z,9.69
2023-11-09T12:25:46.838Z,9.75
2023-11-09T12:31:05.528Z,9.81
2023-11-09T12:36:24.857Z,9.81
2023-11-09T12:41:43.555Z,9.88
2023-11-09T12:47:03.631Z,9.94
2023-11-09T12:52:22.624Z,10.38
2023-11-09T12:57:41.433Z,10.63
2023-11-09T13:03:01.756Z,10.88
2023-11-09T13:08:20.294Z,11.12
2023-11-09T13:13:38.919Z,10.94
2023-11-09T13:23:56.126Z,10.88
2023-11-09T13:29:14.814Z,11
2023-11-09T13:34:33.506Z,11.12
2023-11-09T13:39:53.338Z,11.38
2023-11-09T13:45:12.088Z,11.5
2023-11-09T13:55:29.363Z,11.38
2023-11-09T14:05:46.621Z,11.25
2023-11-09T14:11:05.549Z,11.19
2023-11-09T14:16:24.301Z,11.25
2023-11-09T14:21:43.762Z,11.06
2023-11-09T14:27:03.448Z,11.12
2023-11-09T14:32:22.066Z,11.06
2023-11-09T14:37:40.612Z,10.63
2023-11-09T14:43:07.544Z,10.13
2023-11-09T14:53:25.914Z,9
2023-11-09T15:08:45.538Z,8.81
2023-11-09T15:19:02.912Z,8.63
2023-11-09T15:29:20.298Z,8.56
2023-11-09T15:34:39.011Z,8.44
2023-11-09T15:40:12.636Z,8.5
2023-11-09T15:45:16.556Z,8.5
2023-11-09T15:50:35.309Z,8.5
2023-11-09T15:55:54.026Z,8.44
2023-11-09T16:01:12.685Z,8.31
2023-11-09T16:06:31.291Z,8.25
2023-11-09T16:11:50.199Z,8.25
2023-11-09T16:17:08.903Z,8.25
2023-11-09T16:22:27.655Z,8.19
2023-11-09T16:27:46.371Z,8.19
2023-11-09T16:38:03.444Z,8.13
2023-11-09T16:43:22.160Z,8.13
2023-11-09T16:48:40.858Z,8
2023-11-09T16:53:59.586Z,8
2023-11-09T16:59:18.228Z,7.87
2023-11-09T17:04:36.877Z,7.94
2023-11-09T17:14:54.571Z,7.87
2023-11-09T17:25:12.726Z,7.75
2023-11-09T17:35:30.040Z,7.62
2023-11-09T17:45:47.435Z,7.56
2023-11-09T17:56:04.807Z,7.56
2023-11-09T18:11:23.975Z,7.44
2023-11-09T18:16:39.446Z,7.31
2023-11-09T18:21:57.793Z,7.31
2023-11-09T18:27:16.584Z,7.31
2023-11-09T18:32:35.371Z,7.25
2023-11-09T18:37:53.941Z,7.12
2023-11-09T18:43:12.620Z,7.12
2023-11-09T18:48:31.240Z,7.19
2023-11-09T18:53:49.923Z,7.5
2023-11-09T18:59:08.741Z,7.56
2023-11-09T19:09:47.040Z,7.75
2023-11-09T19:15:05.884Z,7.75
2023-11-09T19:22:26.379Z,7.94
2023-11-09T19:25:44.324Z,7.94
2023-11-09T19:31:03.149Z,8.06
2023-11-09T19:41:20.555Z,8
2023-11-09T19:46:39.295Z,8.06
2023-11-09T19:52:00.050Z,8.06
2023-11-09T19:57:19.809Z,8.06
2023-11-09T20:02:38.866Z,8.19
2023-11-09T20:07:57.386Z,8.31
2023-11-09T20:13:18.043Z,8.31
2023-11-09T20:18:36.758Z,8.38
2023-11-09T20:23:56.493Z,8.5
2023-11-09T20:29:15.025Z,8.38
2023-11-09T20:34:34.068Z,8.44
2023-11-09T20:39:52.638Z,8.44
2023-11-09T20:45:11.302Z,8.38
2023-11-09T20:50:30.019Z,8.44
2023-11-09T20:55:48.776Z,8.69
2023-11-09T21:01:07.572Z,8.75
2023-11-09T21:06:27.528Z,8.94
2023-11-09T21:11:46.217Z,8.75
2023-11-09T21:17:04.906Z,8.75
2023-11-09T21:22:23.489Z,8.81
2023-11-09T21:27:42.286Z,8.81
2023-11-09T21:33:00.990Z,8.88
2023-11-09T21:38:19.758Z,8.88
2023-11-09T21:43:38.492Z,8.81
2023-11-09T21:48:57.169Z,8.75
2023-11-09T21:54:15.870Z,8.69
2023-11-09T22:09:31.892Z,8.69
2023-11-09T22:19:49.592Z,8.63
2023-11-09T22:30:15.175Z,8.63
2023-11-09T22:35:33.715Z,8.56
2023-11-09T22:40:52.412Z,8.5
2023-11-09T22:46:12.096Z,8.56
2023-11-09T22:51:30.766Z,8.69
2023-11-09T22:56:49.430Z,8.81
2023-11-09T23:02:08.067Z,8.81
2023-11-09T23:07:26.655Z,8.75
2023-11-09T23:12:45.091Z,8.69
2023-11-09T23:18:03.364Z,8.63
2023-11-09T23:23:21.481Z,8.56
2023-11-09T23:28:39.762Z,8.44
2023-11-09T23:34:01.243Z,8.38
2023-11-09T23:39:16.913Z,8.25
2023-11-09T23:44:35.531Z,8.25
2023-11-09T23:49:54.160Z,8.13
2023-11-09T23:55:12.745Z,8.06
